This is the latest recevied weather packets stored in our database for station/object OE3AOG-10. If no packets are shown the sender has not sent any weather packets the latest 10 day(s).
| Time | Temp. | Humidity | Pressure | Rain* | Wind** | Luminosity | Snow |
|---|---|---|---|---|---|---|---|
| 1787971309 | 20° C | 55% | 1017.3 hPa | - | - | - | - |
| 1787967709 | 19.44° C | 59% | 1016.6 hPa | - | - | - | - |
| 1787964110 | 20.56° C | 61% | 1015.8 hPa | - | - | - | - |
| 1787960510 | 22.78° C | 61% | 1014.5 hPa | - | - | - | - |
| 1787956909 | 23.33° C | 62% | 1014 hPa | - | - | - | - |
| 1787953309 | 23.89° C | 60% | 1013.6 hPa | - | - | - | - |
| 1787949709 | 25° C | 58% | 1013.7 hPa | - | - | - | - |
| 1787946109 | 25.56° C | 55% | 1014.2 hPa | - | - | - | - |
| 1787942511 | 27.78° C | 48% | 1013.6 hPa | - | - | - | - |
| 1787938911 | 28.89° C | 43% | 1012.6 hPa | - | - | - | - |
| 1787935311 | 30.56° C | 39% | 1012.1 hPa | - | - | - | - |
| 1787931711 | 31.67° C | 36% | 1012.8 hPa | - | - | - | - |
| 1787928110 | 32.22° C | 34% | 1013.4 hPa | - | - | - | - |
| 1787924510 | 33.33° C | 33% | 1013.5 hPa | - | - | - | - |
| 1787920910 | 32.78° C | 32% | 1014.1 hPa | - | - | - | - |
| 1787917310 | 32.78° C | 34% | 1014.8 hPa | - | - | - | - |
| 1787913710 | 31.11° C | 36% | 1015.6 hPa | - | - | - | - |
| 1787910109 | 30° C | 39% | 1016.6 hPa | - | - | - | - |
| 1787906508 | 27.78° C | 43% | 1016.9 hPa | - | - | - | - |
| 1787902908 | 25° C | 48% | 1017.3 hPa | - | - | - | - |
| 1787899307 | 22.78° C | 53% | 1018.2 hPa | - | - | - | - |
| 1787895707 | 20.56° C | 57% | 1017.9 hPa | - | - | - | - |
| 1787892106 | 20° C | 59% | 1017.7 hPa | - | - | - | - |
| 1787888506 | 20° C | 59% | 1017.8 hPa | - | - | - | - |
| 1787884906 | 20° C | 60% | 1017.5 hPa | - | - | - | - |
* Rain since midnight (hover to see other rain measurements)
** Current wind speed in m/s (hover to see current wind gust speed)